sensor_id;sensor_type;location;lat;lon;timestamp;temperature;humidity
11304;DHT22;5707;49.588;12.148;2023-07-29T00:00:49;17.30;99.90
11304;DHT22;5707;49.588;12.148;2023-07-29T00:03:15;17.40;99.90
11304;DHT22;5707;49.588;12.148;2023-07-29T00:05:41;17.40;99.90
11304;DHT22;5707;49.588;12.148;2023-07-29T00:08:06;17.40;99.90
11304;DHT22;5707;49.588;12.148;2023-07-29T00:10:35;17.40;99.90
11304;DHT22;5707;49.588;12.148;2023-07-29T00:13:01;17.40;99.90
11304;DHT22;5707;49.588;12.148;2023-07-29T00:15:26;17.40;99.90
11304;DHT22;5707;49.588;12.148;2023-07-29T00:17:52;17.40;99.90
11304;DHT22;5707;49.588;12.148;2023-07-29T00:20:18;17.40;99.90
11304;DHT22;5707;49.588;12.148;2023-07-29T00:22:43;17.40;99.90
11304;DHT22;5707;49.588;12.148;2023-07-29T00:25:09;17.40;99.90
11304;DHT22;5707;49.588;12.148;2023-07-29T00:27:34;17.40;99.90
11304;DHT22;5707;49.588;12.148;2023-07-29T00:30:00;17.50;99.90
11304;DHT22;5707;49.588;12.148;2023-07-29T00:32:29;17.50;99.90
11304;DHT22;5707;49.588;12.148;2023-07-29T00:34:54;17.40;99.90
11304;DHT22;5707;49.588;12.148;2023-07-29T00:37:20;17.50;99.90
11304;DHT22;5707;49.588;12.148;2023-07-29T00:39:46;17.50;99.90
11304;DHT22;5707;49.588;12.148;2023-07-29T00:42:11;17.50;99.90
11304;DHT22;5707;49.588;12.148;2023-07-29T00:44:37;17.50;99.90
11304;DHT22;5707;49.588;12.148;2023-07-29T00:47:03;17.50;99.90
11304;DHT22;5707;49.588;12.148;2023-07-29T00:49:30;17.40;99.90
11304;DHT22;5707;49.588;12.148;2023-07-29T00:51:55;17.40;99.90
11304;DHT22;5707;49.588;12.148;2023-07-29T00:54:21;17.40;99.90
11304;DHT22;5707;49.588;12.148;2023-07-29T00:56:47;17.40;99.90
11304;DHT22;5707;49.588;12.148;2023-07-29T00:59:13;17.40;99.90
11304;DHT22;5707;49.588;12.148;2023-07-29T01:01:38;17.40;99.90
11304;DHT22;5707;49.588;12.148;2023-07-29T01:04:04;17.40;99.90
11304;DHT22;5707;49.588;12.148;2023-07-29T01:06:46;17.40;99.90
11304;DHT22;5707;49.588;12.148;2023-07-29T01:09:28;17.40;99.90
11304;DHT22;5707;49.588;12.148;2023-07-29T01:12:13;17.40;99.90
11304;DHT22;5707;49.588;12.148;2023-07-29T01:17:33;17.40;99.90
11304;DHT22;5707;49.588;12.148;2023-07-29T01:20:08;17.40;99.90
11304;DHT22;5707;49.588;12.148;2023-07-29T01:22:37;17.40;99.90
11304;DHT22;5707;49.588;12.148;2023-07-29T01:25:04;17.40;99.90
11304;DHT22;5707;49.588;12.148;2023-07-29T01:27:30;17.40;99.90
11304;DHT22;5707;49.588;12.148;2023-07-29T01:29:57;17.30;99.90
11304;DHT22;5707;49.588;12.148;2023-07-29T01:32:38;17.30;99.90
11304;DHT22;5707;49.588;12.148;2023-07-29T01:35:33;17.30;99.90
11304;DHT22;5707;49.588;12.148;2023-07-29T01:38:07;17.30;99.90
11304;DHT22;5707;49.588;12.148;2023-07-29T01:40:35;17.30;99.90
11304;DHT22;5707;49.588;12.148;2023-07-29T01:43:01;17.30;99.90
11304;DHT22;5707;49.588;12.148;2023-07-29T01:45:28;17.30;99.90
11304;DHT22;5707;49.588;12.148;2023-07-29T01:47:56;17.30;99.90
11304;DHT22;5707;49.588;12.148;2023-07-29T01:50:22;17.30;99.90
11304;DHT22;5707;49.588;12.148;2023-07-29T01:52:48;17.30;99.90
11304;DHT22;5707;49.588;12.148;2023-07-29T01:55:13;17.30;99.90
11304;DHT22;5707;49.588;12.148;2023-07-29T01:57:39;17.30;99.90
11304;DHT22;5707;49.588;12.148;2023-07-29T02:00:05;17.30;99.90
11304;DHT22;5707;49.588;12.148;2023-07-29T02:02:31;17.30;99.90
11304;DHT22;5707;49.588;12.148;2023-07-29T02:04:56;17.30;99.90
11304;DHT22;5707;49.588;12.148;2023-07-29T02:07:22;17.40;99.90
11304;DHT22;5707;49.588;12.148;2023-07-29T02:09:47;17.40;99.90
11304;DHT22;5707;49.588;12.148;2023-07-29T02:12:13;17.40;99.90
11304;DHT22;5707;49.588;12.148;2023-07-29T02:14:38;17.40;99.90
11304;DHT22;5707;49.588;12.148;2023-07-29T02:17:04;17.40;99.90
11304;DHT22;5707;49.588;12.148;2023-07-29T02:19:30;17.40;99.90
11304;DHT22;5707;49.588;12.148;2023-07-29T02:21:55;17.40;99.90
11304;DHT22;5707;49.588;12.148;2023-07-29T02:24:21;17.40;99.90
11304;DHT22;5707;49.588;12.148;2023-07-29T02:26:46;17.40;99.90
11304;DHT22;5707;49.588;12.148;2023-07-29T02:29:12;17.40;99.90
11304;DHT22;5707;49.588;12.148;2023-07-29T02:31:37;17.40;99.90
11304;DHT22;5707;49.588;12.148;2023-07-29T02:34:04;17.40;99.90
11304;DHT22;5707;49.588;12.148;2023-07-29T02:36:30;17.40;99.90
11304;DHT22;5707;49.588;12.148;2023-07-29T02:38:55;17.40;99.90
11304;DHT22;5707;49.588;12.148;2023-07-29T02:41:21;17.40;99.90
11304;DHT22;5707;49.588;12.148;2023-07-29T02:43:50;17.40;99.90
11304;DHT22;5707;49.588;12.148;2023-07-29T02:46:16;17.30;99.90
11304;DHT22;5707;49.588;12.148;2023-07-29T02:48:42;17.20;99.90
11304;DHT22;5707;49.588;12.148;2023-07-29T02:51:08;17.20;99.90
11304;DHT22;5707;49.588;12.148;2023-07-29T02:53:33;17.20;99.90
11304;DHT22;5707;49.588;12.148;2023-07-29T02:56:02;17.20;99.90
11304;DHT22;5707;49.588;12.148;2023-07-29T02:58:28;17.30;99.90
11304;DHT22;5707;49.588;12.148;2023-07-29T03:01:00;17.30;99.90
11304;DHT22;5707;49.588;12.148;2023-07-29T03:03:27;17.30;99.90
11304;DHT22;5707;49.588;12.148;2023-07-29T03:06:04;17.30;99.90
11304;DHT22;5707;49.588;12.148;2023-07-29T03:08:29;17.30;99.90
11304;DHT22;5707;49.588;12.148;2023-07-29T03:10:56;17.30;99.90
11304;DHT22;5707;49.588;12.148;2023-07-29T03:13:22;17.30;99.90
11304;DHT22;5707;49.588;12.148;2023-07-29T03:15:47;17.30;99.90
11304;DHT22;5707;49.588;12.148;2023-07-29T03:18:14;17.30;99.90
11304;DHT22;5707;49.588;12.148;2023-07-29T03:20:39;17.30;99.90
11304;DHT22;5707;49.588;12.148;2023-07-29T03:23:05;17.30;99.90
11304;DHT22;5707;49.588;12.148;2023-07-29T03:25:31;17.30;99.90
11304;DHT22;5707;49.588;12.148;2023-07-29T03:27:56;17.30;99.90
11304;DHT22;5707;49.588;12.148;2023-07-29T03:30:22;17.30;99.90
11304;DHT22;5707;49.588;12.148;2023-07-29T03:32:49;17.30;99.90
11304;DHT22;5707;49.588;12.148;2023-07-29T03:35:15;17.30;99.90
11304;DHT22;5707;49.588;12.148;2023-07-29T03:37:40;17.30;99.90
11304;DHT22;5707;49.588;12.148;2023-07-29T03:40:07;17.30;99.90
11304;DHT22;5707;49.588;12.148;2023-07-29T03:42:34;17.40;99.90
11304;DHT22;5707;49.588;12.148;2023-07-29T03:45:00;17.40;99.90
11304;DHT22;5707;49.588;12.148;2023-07-29T03:47:26;17.40;99.90
11304;DHT22;5707;49.588;12.148;2023-07-29T03:49:51;17.40;99.90
11304;DHT22;5707;49.588;12.148;2023-07-29T03:52:17;17.40;99.90
11304;DHT22;5707;49.588;12.148;2023-07-29T03:54:42;17.40;99.90
11304;DHT22;5707;49.588;12.148;2023-07-29T03:57:08;17.50;99.90
11304;DHT22;5707;49.588;12.148;2023-07-29T03:59:33;17.50;99.90
11304;DHT22;5707;49.588;12.148;2023-07-29T04:01:59;17.50;99.90
11304;DHT22;5707;49.588;12.148;2023-07-29T04:04:24;17.60;99.90
11304;DHT22;5707;49.588;12.148;2023-07-29T04:06:50;17.60;99.90
11304;DHT22;5707;49.588;12.148;2023-07-29T04:09:16;17.60;99.90
11304;DHT22;5707;49.588;12.148;2023-07-29T04:11:41;17.60;99.90
11304;DHT22;5707;49.588;12.148;2023-07-29T04:14:07;17.60;99.90
11304;DHT22;5707;49.588;12.148;2023-07-29T04:16:33;17.60;99.90
11304;DHT22;5707;49.588;12.148;2023-07-29T04:18:58;17.60;99.90
11304;DHT22;5707;49.588;12.148;2023-07-29T04:21:24;17.60;99.90
11304;DHT22;5707;49.588;12.148;2023-07-29T04:23:49;17.60;99.90
11304;DHT22;5707;49.588;12.148;2023-07-29T04:26:15;17.70;99.90
11304;DHT22;5707;49.588;12.148;2023-07-29T04:28:41;17.70;99.90
11304;DHT22;5707;49.588;12.148;2023-07-29T04:31:07;17.70;99.90
11304;DHT22;5707;49.588;12.148;2023-07-29T04:33:32;17.70;99.90
11304;DHT22;5707;49.588;12.148;2023-07-29T04:35:58;17.70;99.90
11304;DHT22;5707;49.588;12.148;2023-07-29T04:38:30;17.70;99.90
11304;DHT22;5707;49.588;12.148;2023-07-29T04:40:56;17.80;99.90
11304;DHT22;5707;49.588;12.148;2023-07-29T04:43:22;17.80;99.90
11304;DHT22;5707;49.588;12.148;2023-07-29T04:45:48;17.80;99.90
11304;DHT22;5707;49.588;12.148;2023-07-29T04:48:13;17.90;99.90
11304;DHT22;5707;49.588;12.148;2023-07-29T04:50:39;18.00;99.90
11304;DHT22;5707;49.588;12.148;2023-07-29T04:53:05;18.10;99.90
11304;DHT22;5707;49.588;12.148;2023-07-29T04:55:30;18.20;99.90
11304;DHT22;5707;49.588;12.148;2023-07-29T04:57:56;18.20;99.90
11304;DHT22;5707;49.588;12.148;2023-07-29T05:00:22;18.30;99.90
11304;DHT22;5707;49.588;12.148;2023-07-29T05:02:47;18.20;99.90
11304;DHT22;5707;49.588;12.148;2023-07-29T05:05:13;18.20;99.90
11304;DHT22;5707;49.588;12.148;2023-07-29T05:07:38;18.20;99.90
11304;DHT22;5707;49.588;12.148;2023-07-29T05:10:04;18.50;99.90
11304;DHT22;5707;49.588;12.148;2023-07-29T05:12:30;18.60;99.90
11304;DHT22;5707;49.588;12.148;2023-07-29T05:14:58;18.80;99.90
11304;DHT22;5707;49.588;12.148;2023-07-29T05:17:23;18.90;99.90
11304;DHT22;5707;49.588;12.148;2023-07-29T05:19:49;19.20;99.90
11304;DHT22;5707;49.588;12.148;2023-07-29T05:22:14;20.00;99.90
11304;DHT22;5707;49.588;12.148;2023-07-29T05:24:40;21.20;99.90
11304;DHT22;5707;49.588;12.148;2023-07-29T05:27:05;22.10;99.90
11304;DHT22;5707;49.588;12.148;2023-07-29T05:29:31;22.70;99.90
11304;DHT22;5707;49.588;12.148;2023-07-29T05:31:57;23.00;99.90
11304;DHT22;5707;49.588;12.148;2023-07-29T05:34:22;22.80;99.90
11304;DHT22;5707;49.588;12.148;2023-07-29T05:36:48;22.40;99.90
11304;DHT22;5707;49.588;12.148;2023-07-29T05:39:13;21.90;99.90
11304;DHT22;5707;49.588;12.148;2023-07-29T05:41:39;21.70;99.90
11304;DHT22;5707;49.588;12.148;2023-07-29T05:44:05;21.70;99.90
11304;DHT22;5707;49.588;12.148;2023-07-29T05:46:30;21.80;99.90
11304;DHT22;5707;49.588;12.148;2023-07-29T05:48:56;21.80;99.90
11304;DHT22;5707;49.588;12.148;2023-07-29T05:51:21;21.60;99.90
11304;DHT22;5707;49.588;12.148;2023-07-29T05:53:47;21.50;99.90
11304;DHT22;5707;49.588;12.148;2023-07-29T05:56:13;21.50;99.90
11304;DHT22;5707;49.588;12.148;2023-07-29T05:58:38;21.70;99.90
11304;DHT22;5707;49.588;12.148;2023-07-29T06:01:04;21.90;99.90
11304;DHT22;5707;49.588;12.148;2023-07-29T06:03:30;22.30;99.90
11304;DHT22;5707;49.588;12.148;2023-07-29T06:05:55;22.50;99.90
11304;DHT22;5707;49.588;12.148;2023-07-29T06:08:21;22.80;99.90
11304;DHT22;5707;49.588;12.148;2023-07-29T06:10:47;23.40;99.90
11304;DHT22;5707;49.588;12.148;2023-07-29T06:13:12;23.80;99.90
11304;DHT22;5707;49.588;12.148;2023-07-29T06:15:38;24.00;99.90
11304;DHT22;5707;49.588;12.148;2023-07-29T06:18:03;24.00;99.90
11304;DHT22;5707;49.588;12.148;2023-07-29T06:20:29;23.70;99.90
11304;DHT22;5707;49.588;12.148;2023-07-29T06:22:54;23.60;99.90
11304;DHT22;5707;49.588;12.148;2023-07-29T06:25:20;23.50;99.90
11304;DHT22;5707;49.588;12.148;2023-07-29T06:27:46;23.50;99.90
11304;DHT22;5707;49.588;12.148;2023-07-29T06:30:11;23.20;99.90
11304;DHT22;5707;49.588;12.148;2023-07-29T06:32:37;23.20;99.90
11304;DHT22;5707;49.588;12.148;2023-07-29T06:35:03;22.90;99.90
11304;DHT22;5707;49.588;12.148;2023-07-29T06:37:28;22.70;99.90
11304;DHT22;5707;49.588;12.148;2023-07-29T06:39:54;22.70;99.90
11304;DHT22;5707;49.588;12.148;2023-07-29T06:42:19;22.60;99.90
11304;DHT22;5707;49.588;12.148;2023-07-29T06:44:45;22.60;99.90
11304;DHT22;5707;49.588;12.148;2023-07-29T06:47:11;22.70;99.90
11304;DHT22;5707;49.588;12.148;2023-07-29T06:49:37;22.80;99.90
11304;DHT22;5707;49.588;12.148;2023-07-29T06:52:03;22.90;99.90
11304;DHT22;5707;49.588;12.148;2023-07-29T06:54:28;23.00;99.90
11304;DHT22;5707;49.588;12.148;2023-07-29T06:56:54;23.20;99.90
11304;DHT22;5707;49.588;12.148;2023-07-29T06:59:20;23.40;99.90
11304;DHT22;5707;49.588;12.148;2023-07-29T07:01:46;23.30;99.90
11304;DHT22;5707;49.588;12.148;2023-07-29T07:04:11;23.10;99.90
11304;DHT22;5707;49.588;12.148;2023-07-29T07:06:37;23.00;99.90
11304;DHT22;5707;49.588;12.148;2023-07-29T07:09:03;22.70;99.90
11304;DHT22;5707;49.588;12.148;2023-07-29T07:11:28;22.60;99.90
11304;DHT22;5707;49.588;12.148;2023-07-29T07:13:54;22.50;99.90
11304;DHT22;5707;49.588;12.148;2023-07-29T07:16:20;22.30;99.90
11304;DHT22;5707;49.588;12.148;2023-07-29T07:18:45;22.30;99.90
11304;DHT22;5707;49.588;12.148;2023-07-29T07:21:11;22.50;99.90
11304;DHT22;5707;49.588;12.148;2023-07-29T07:23:38;22.90;99.90
11304;DHT22;5707;49.588;12.148;2023-07-29T07:26:03;23.50;99.90
11304;DHT22;5707;49.588;12.148;2023-07-29T07:28:29;23.70;99.90
11304;DHT22;5707;49.588;12.148;2023-07-29T07:30:54;23.60;99.90
11304;DHT22;5707;49.588;12.148;2023-07-29T07:33:21;23.60;99.90
11304;DHT22;5707;49.588;12.148;2023-07-29T07:35:47;23.70;99.90
11304;DHT22;5707;49.588;12.148;2023-07-29T07:38:12;24.00;99.90
11304;DHT22;5707;49.588;12.148;2023-07-29T07:40:38;24.30;99.90
11304;DHT22;5707;49.588;12.148;2023-07-29T07:43:03;24.30;99.90
11304;DHT22;5707;49.588;12.148;2023-07-29T07:45:29;24.30;99.90
11304;DHT22;5707;49.588;12.148;2023-07-29T07:47:57;24.10;99.90
11304;DHT22;5707;49.588;12.148;2023-07-29T07:50:22;23.60;99.90
11304;DHT22;5707;49.588;12.148;2023-07-29T07:52:49;23.00;99.90
11304;DHT22;5707;49.588;12.148;2023-07-29T07:55:15;22.50;99.90
11304;DHT22;5707;49.588;12.148;2023-07-29T07:57:40;21.90;99.90
11304;DHT22;5707;49.588;12.148;2023-07-29T08:00:06;21.40;99.90
11304;DHT22;5707;49.588;12.148;2023-07-29T08:02:32;20.90;99.90
11304;DHT22;5707;49.588;12.148;2023-07-29T08:04:58;20.50;99.90
11304;DHT22;5707;49.588;12.148;2023-07-29T08:07:23;20.20;99.90
11304;DHT22;5707;49.588;12.148;2023-07-29T08:09:49;20.10;99.90
11304;DHT22;5707;49.588;12.148;2023-07-29T08:12:14;20.00;99.90
11304;DHT22;5707;49.588;12.148;2023-07-29T08:14:40;19.90;99.90
11304;DHT22;5707;49.588;12.148;2023-07-29T08:17:06;19.90;99.90
11304;DHT22;5707;49.588;12.148;2023-07-29T08:19:31;20.10;99.90
11304;DHT22;5707;49.588;12.148;2023-07-29T08:21:57;20.30;99.90
11304;DHT22;5707;49.588;12.148;2023-07-29T08:24:23;20.40;99.90
11304;DHT22;5707;49.588;12.148;2023-07-29T08:26:48;20.60;99.90
11304;DHT22;5707;49.588;12.148;2023-07-29T08:29:14;20.80;99.90
11304;DHT22;5707;49.588;12.148;2023-07-29T08:31:40;20.90;99.90
11304;DHT22;5707;49.588;12.148;2023-07-29T08:34:05;21.10;99.90
11304;DHT22;5707;49.588;12.148;2023-07-29T08:36:31;21.40;99.90
11304;DHT22;5707;49.588;12.148;2023-07-29T08:38:56;21.70;99.90
11304;DHT22;5707;49.588;12.148;2023-07-29T08:44:06;21.90;99.90
11304;DHT22;5707;49.588;12.148;2023-07-29T08:46:34;21.60;99.90
11304;DHT22;5707;49.588;12.148;2023-07-29T08:49:01;21.30;99.90
11304;DHT22;5707;49.588;12.148;2023-07-29T08:51:27;21.10;99.90
11304;DHT22;5707;49.588;12.148;2023-07-29T08:53:54;20.90;99.90
11304;DHT22;5707;49.588;12.148;2023-07-29T08:56:20;20.80;99.90
11304;DHT22;5707;49.588;12.148;2023-07-29T08:58:47;20.90;99.90
11304;DHT22;5707;49.588;12.148;2023-07-29T09:01:12;20.90;99.90
11304;DHT22;5707;49.588;12.148;2023-07-29T09:03:39;21.00;99.90
11304;DHT22;5707;49.588;12.148;2023-07-29T09:06:05;21.20;99.90
11304;DHT22;5707;49.588;12.148;2023-07-29T09:08:34;21.40;99.90
11304;DHT22;5707;49.588;12.148;2023-07-29T09:11:00;21.60;99.90
11304;DHT22;5707;49.588;12.148;2023-07-29T09:13:26;21.50;99.90
11304;DHT22;5707;49.588;12.148;2023-07-29T09:15:55;21.30;99.90
11304;DHT22;5707;49.588;12.148;2023-07-29T09:18:26;21.00;99.90
11304;DHT22;5707;49.588;12.148;2023-07-29T09:20:53;20.70;99.90
11304;DHT22;5707;49.588;12.148;2023-07-29T09:23:18;20.60;99.90
11304;DHT22;5707;49.588;12.148;2023-07-29T09:25:46;20.60;99.90
11304;DHT22;5707;49.588;12.148;2023-07-29T09:28:14;20.70;99.90
11304;DHT22;5707;49.588;12.148;2023-07-29T09:30:42;20.90;99.90
11304;DHT22;5707;49.588;12.148;2023-07-29T09:33:09;21.30;99.90
11304;DHT22;5707;49.588;12.148;2023-07-29T09:35:36;21.60;99.90
11304;DHT22;5707;49.588;12.148;2023-07-29T09:38:06;21.80;99.90
11304;DHT22;5707;49.588;12.148;2023-07-29T09:40:36;21.90;99.90
11304;DHT22;5707;49.588;12.148;2023-07-29T09:43:03;21.80;99.90
11304;DHT22;5707;49.588;12.148;2023-07-29T09:45:29;21.50;99.90
11304;DHT22;5707;49.588;12.148;2023-07-29T09:47:57;21.10;99.90
11304;DHT22;5707;49.588;12.148;2023-07-29T09:50:24;20.70;99.90
11304;DHT22;5707;49.588;12.148;2023-07-29T09:52:51;20.20;99.90
11304;DHT22;5707;49.588;12.148;2023-07-29T09:55:18;19.90;99.90
11304;DHT22;5707;49.588;12.148;2023-07-29T09:57:44;19.70;99.90
11304;DHT22;5707;49.588;12.148;2023-07-29T10:00:11;19.70;99.90
11304;DHT22;5707;49.588;12.148;2023-07-29T10:02:43;19.70;99.90
11304;DHT22;5707;49.588;12.148;2023-07-29T10:05:10;19.90;99.90
11304;DHT22;5707;49.588;12.148;2023-07-29T10:07:39;19.80;99.90
11304;DHT22;5707;49.588;12.148;2023-07-29T10:10:06;19.70;99.90
11304;DHT22;5707;49.588;12.148;2023-07-29T10:12:33;19.60;99.90
11304;DHT22;5707;49.588;12.148;2023-07-29T10:15:06;19.60;99.90
11304;DHT22;5707;49.588;12.148;2023-07-29T10:17:36;19.70;99.90
11304;DHT22;5707;49.588;12.148;2023-07-29T10:20:07;19.90;99.90
11304;DHT22;5707;49.588;12.148;2023-07-29T10:22:37;20.20;99.90
11304;DHT22;5707;49.588;12.148;2023-07-29T10:25:07;20.40;99.90
11304;DHT22;5707;49.588;12.148;2023-07-29T10:27:43;20.40;99.90
11304;DHT22;5707;49.588;12.148;2023-07-29T10:30:11;20.20;99.90
11304;DHT22;5707;49.588;12.148;2023-07-29T10:32:38;20.10;99.90
11304;DHT22;5707;49.588;12.148;2023-07-29T10:35:04;19.90;99.90
11304;DHT22;5707;49.588;12.148;2023-07-29T10:37:30;19.80;99.90
11304;DHT22;5707;49.588;12.148;2023-07-29T10:39:56;19.80;99.90
11304;DHT22;5707;49.588;12.148;2023-07-29T10:42:22;19.80;99.90
11304;DHT22;5707;49.588;12.148;2023-07-29T10:44:49;19.90;99.90
11304;DHT22;5707;49.588;12.148;2023-07-29T10:47:18;19.80;99.90
11304;DHT22;5707;49.588;12.148;2023-07-29T10:49:46;19.80;99.90
11304;DHT22;5707;49.588;12.148;2023-07-29T10:52:16;19.70;99.90
11304;DHT22;5707;49.588;12.148;2023-07-29T10:54:46;19.50;99.90
11304;DHT22;5707;49.588;12.148;2023-07-29T10:57:21;19.30;99.90
11304;DHT22;5707;49.588;12.148;2023-07-29T10:59:56;19.30;99.90
11304;DHT22;5707;49.588;12.148;2023-07-29T11:02:31;19.50;99.90
11304;DHT22;5707;49.588;12.148;2023-07-29T11:04:57;19.90;99.90
11304;DHT22;5707;49.588;12.148;2023-07-29T11:07:25;20.50;99.90
11304;DHT22;5707;49.588;12.148;2023-07-29T11:09:56;21.20;99.90
11304;DHT22;5707;49.588;12.148;2023-07-29T11:12:48;21.70;99.90
11304;DHT22;5707;49.588;12.148;2023-07-29T11:15:36;22.30;99.90
11304;DHT22;5707;49.588;12.148;2023-07-29T11:18:02;22.80;99.90
11304;DHT22;5707;49.588;12.148;2023-07-29T11:20:32;23.10;99.90
11304;DHT22;5707;49.588;12.148;2023-07-29T11:22:59;23.60;99.90
11304;DHT22;5707;49.588;12.148;2023-07-29T11:25:28;23.90;99.90
11304;DHT22;5707;49.588;12.148;2023-07-29T11:27:55;23.90;99.90
11304;DHT22;5707;49.588;12.148;2023-07-29T11:30:21;24.10;99.90
11304;DHT22;5707;49.588;12.148;2023-07-29T11:32:48;24.00;99.90
11304;DHT22;5707;49.588;12.148;2023-07-29T11:35:16;23.90;99.90
11304;DHT22;5707;49.588;12.148;2023-07-29T11:37:45;23.90;99.90
11304;DHT22;5707;49.588;12.148;2023-07-29T11:40:20;23.90;99.90
11304;DHT22;5707;49.588;12.148;2023-07-29T11:42:47;24.00;99.90
11304;DHT22;5707;49.588;12.148;2023-07-29T11:45:13;23.60;99.90
11304;DHT22;5707;49.588;12.148;2023-07-29T11:47:39;23.20;99.90
11304;DHT22;5707;49.588;12.148;2023-07-29T11:50:06;22.80;99.90
11304;DHT22;5707;49.588;12.148;2023-07-29T11:52:35;22.70;99.90
11304;DHT22;5707;49.588;12.148;2023-07-29T11:55:02;22.80;99.90
11304;DHT22;5707;49.588;12.148;2023-07-29T11:57:36;23.00;99.90
11304;DHT22;5707;49.588;12.148;2023-07-29T12:00:03;23.20;99.90
11304;DHT22;5707;49.588;12.148;2023-07-29T12:02:30;23.80;99.90
11304;DHT22;5707;49.588;12.148;2023-07-29T12:04:57;24.60;99.90
11304;DHT22;5707;49.588;12.148;2023-07-29T12:07:23;25.10;99.90
11304;DHT22;5707;49.588;12.148;2023-07-29T12:09:49;25.40;99.90
11304;DHT22;5707;49.588;12.148;2023-07-29T12:12:15;25.00;99.90
11304;DHT22;5707;49.588;12.148;2023-07-29T12:14:44;24.70;99.90
11304;DHT22;5707;49.588;12.148;2023-07-29T12:17:10;24.40;99.90
11304;DHT22;5707;49.588;12.148;2023-07-29T12:19:37;24.50;99.90
11304;DHT22;5707;49.588;12.148;2023-07-29T12:22:05;24.70;99.90
11304;DHT22;5707;49.588;12.148;2023-07-29T12:24:32;25.10;99.90
11304;DHT22;5707;49.588;12.148;2023-07-29T12:26:58;25.70;99.90
11304;DHT22;5707;49.588;12.148;2023-07-29T12:29:24;26.20;99.90
11304;DHT22;5707;49.588;12.148;2023-07-29T12:32:00;26.10;99.90
11304;DHT22;5707;49.588;12.148;2023-07-29T12:34:28;25.60;99.90
11304;DHT22;5707;49.588;12.148;2023-07-29T12:36:55;25.50;99.90
11304;DHT22;5707;49.588;12.148;2023-07-29T12:39:29;26.20;99.90
11304;DHT22;5707;49.588;12.148;2023-07-29T12:41:57;26.60;99.90
11304;DHT22;5707;49.588;12.148;2023-07-29T12:44:30;26.40;99.90
11304;DHT22;5707;49.588;12.148;2023-07-29T12:46:56;26.50;99.90
11304;DHT22;5707;49.588;12.148;2023-07-29T12:49:22;26.60;99.90
11304;DHT22;5707;49.588;12.148;2023-07-29T12:51:48;26.90;99.90
11304;DHT22;5707;49.588;12.148;2023-07-29T12:54:14;26.90;99.90
11304;DHT22;5707;49.588;12.148;2023-07-29T12:56:39;26.80;99.90
11304;DHT22;5707;49.588;12.148;2023-07-29T12:59:05;26.70;99.90
11304;DHT22;5707;49.588;12.148;2023-07-29T13:01:30;26.60;99.90
11304;DHT22;5707;49.588;12.148;2023-07-29T13:03:56;26.60;99.90
11304;DHT22;5707;49.588;12.148;2023-07-29T13:06:22;26.20;99.90
11304;DHT22;5707;49.588;12.148;2023-07-29T13:08:48;26.00;99.90
11304;DHT22;5707;49.588;12.148;2023-07-29T13:11:15;25.80;99.90
11304;DHT22;5707;49.588;12.148;2023-07-29T13:13:41;25.80;99.90
11304;DHT22;5707;49.588;12.148;2023-07-29T13:16:06;25.80;99.90
11304;DHT22;5707;49.588;12.148;2023-07-29T13:18:32;25.70;99.90
11304;DHT22;5707;49.588;12.148;2023-07-29T13:20:58;25.60;99.90
11304;DHT22;5707;49.588;12.148;2023-07-29T13:23:25;25.70;99.90
11304;DHT22;5707;49.588;12.148;2023-07-29T13:25:51;25.90;99.90
11304;DHT22;5707;49.588;12.148;2023-07-29T13:28:16;25.70;99.90
11304;DHT22;5707;49.588;12.148;2023-07-29T13:30:42;25.70;99.90
11304;DHT22;5707;49.588;12.148;2023-07-29T13:33:08;25.70;99.90
11304;DHT22;5707;49.588;12.148;2023-07-29T13:35:34;25.80;99.90
11304;DHT22;5707;49.588;12.148;2023-07-29T13:38:00;25.80;99.90
11304;DHT22;5707;49.588;12.148;2023-07-29T13:40:26;26.10;99.90
11304;DHT22;5707;49.588;12.148;2023-07-29T13:42:51;26.20;99.90
11304;DHT22;5707;49.588;12.148;2023-07-29T13:45:18;26.30;99.90
11304;DHT22;5707;49.588;12.148;2023-07-29T13:47:43;26.50;99.90
11304;DHT22;5707;49.588;12.148;2023-07-29T13:50:09;26.40;99.90
11304;DHT22;5707;49.588;12.148;2023-07-29T13:52:36;26.70;99.90
11304;DHT22;5707;49.588;12.148;2023-07-29T13:55:02;27.00;97.40
11304;DHT22;5707;49.588;12.148;2023-07-29T13:57:28;26.80;97.30
11304;DHT22;5707;49.588;12.148;2023-07-29T13:59:53;26.70;96.80
11304;DHT22;5707;49.588;12.148;2023-07-29T14:02:19;26.40;98.20
11304;DHT22;5707;49.588;12.148;2023-07-29T14:04:44;26.30;99.10
11304;DHT22;5707;49.588;12.148;2023-07-29T14:07:10;26.40;99.00
11304;DHT22;5707;49.588;12.148;2023-07-29T14:09:35;26.50;97.90
11304;DHT22;5707;49.588;12.148;2023-07-29T14:12:01;26.80;99.50
11304;DHT22;5707;49.588;12.148;2023-07-29T14:14:26;27.00;96.70
11304;DHT22;5707;49.588;12.148;2023-07-29T14:16:52;27.20;98.30
11304;DHT22;5707;49.588;12.148;2023-07-29T14:19:18;27.50;97.80
11304;DHT22;5707;49.588;12.148;2023-07-29T14:21:43;27.50;97.00
11304;DHT22;5707;49.588;12.148;2023-07-29T14:24:09;27.20;97.40
11304;DHT22;5707;49.588;12.148;2023-07-29T14:26:34;27.20;96.50
11304;DHT22;5707;49.588;12.148;2023-07-29T14:29:00;27.10;95.50
11304;DHT22;5707;49.588;12.148;2023-07-29T14:31:25;26.80;96.20
11304;DHT22;5707;49.588;12.148;2023-07-29T14:33:51;27.00;96.40
11304;DHT22;5707;49.588;12.148;2023-07-29T14:36:17;26.90;96.90
11304;DHT22;5707;49.588;12.148;2023-07-29T14:38:43;26.80;95.70
11304;DHT22;5707;49.588;12.148;2023-07-29T14:41:08;26.90;98.60
11304;DHT22;5707;49.588;12.148;2023-07-29T14:43:34;27.10;97.70
11304;DHT22;5707;49.588;12.148;2023-07-29T14:46:00;27.20;95.10
11304;DHT22;5707;49.588;12.148;2023-07-29T14:48:26;27.10;92.80
11304;DHT22;5707;49.588;12.148;2023-07-29T14:50:52;27.20;93.30
11304;DHT22;5707;49.588;12.148;2023-07-29T14:53:18;27.40;91.40
11304;DHT22;5707;49.588;12.148;2023-07-29T14:55:43;27.20;90.10
11304;DHT22;5707;49.588;12.148;2023-07-29T14:58:09;27.20;92.40
11304;DHT22;5707;49.588;12.148;2023-07-29T15:00:34;27.30;91.60
11304;DHT22;5707;49.588;12.148;2023-07-29T15:03:00;27.40;91.60
11304;DHT22;5707;49.588;12.148;2023-07-29T15:05:26;27.30;90.40
11304;DHT22;5707;49.588;12.148;2023-07-29T15:07:52;27.10;88.80
11304;DHT22;5707;49.588;12.148;2023-07-29T15:10:18;26.70;91.00
11304;DHT22;5707;49.588;12.148;2023-07-29T15:12:46;26.50;93.20
11304;DHT22;5707;49.588;12.148;2023-07-29T15:15:12;26.60;93.70
11304;DHT22;5707;49.588;12.148;2023-07-29T15:17:38;26.90;91.70
11304;DHT22;5707;49.588;12.148;2023-07-29T15:20:04;26.90;91.30
11304;DHT22;5707;49.588;12.148;2023-07-29T15:22:30;26.90;91.30
11304;DHT22;5707;49.588;12.148;2023-07-29T15:24:59;27.00;92.40
11304;DHT22;5707;49.588;12.148;2023-07-29T15:27:29;27.10;90.70
11304;DHT22;5707;49.588;12.148;2023-07-29T15:29:54;27.20;90.40
11304;DHT22;5707;49.588;12.148;2023-07-29T15:32:20;27.20;90.80